Aérodrome :
LOGIN :

S'inscrire | Disclaimer

   EN    FR    IT 

 










Légende :    VFR   VFR Marginal   IFR   IFR Intensif   IFR Très Intensif
Visi : 
Plafond : 
>= 8 km
>= 3000ft
5 à 8 km
1000 à 3000 ft
1500m à 5 km
500 à 1000 ft
800 à 1500m
200 à 500 ft
< 800m
< 200 ft
Symboles :   Orages  Brouillard  Fortes neiges  Fortes précipitations  Vent > 20 kt
SIGMETs :   Divers  Orages  Givrage  Turbulence  Onde Orograph.  Cendres Volcan.






- Altitude de l'aérodrome : 75 ft
- Code IATA : YEO


EGDY - RNAS Yeovilton

DERNIER METAR :
  • 201050Z 21025G36KT 3500 RADZ FEW006 BKN012 11/10 Q1005 BECMG 4000 -DZ SCT012 RMK YLO1 BECMG GRN

METARs EXPIRÉS :
  • 201025Z 21024G34KT 4000 -DZ BKN012 11/10 Q1005 TEMPO 3500 RADZ SCT006 RMK GRN TEMPO YLO1
  • 200950Z 20022G34KT 4000 -DZ BKN012 10/09 Q1006 NOSIG RMK GRN GRN
  • 200921Z 20024G34KT 4000 -DZ BKN010 10/09 Q1006 NOSIG RMK GRN GRN
  • 200850Z 20021G32KT 6000 -DZ BKN010 10/09 Q1007 NOSIG RMK GRN GRN

TAF TAF EGDY
Valide du 20 à 09h jusqu'au 20 à 18h UTC


200734Z 2009/2018 21020G30KT 7000 -RA SCT012 OVC015
TEMPO 2009/2013 4000 RA
BECMG 2010/2012 29015G25KT
PROB40
TEMPO 2010/2013 29020G30KT 3000 +RA SCT010
BECMG 2012/2014 9999 NSW SCT030
PROB30
TEMPO 2012/2016 7000 -SHRA SCT025



MET'MAP, la Météo Aéronautique d'un coup d'oeil ! - Copyright ORBIFLY Décembre 2007 - Disclaimer

ORBIFLY MET'MAP TEAM :

Programmation & Développement : Alexandra Zaïnal
Sur une idée originale de : Baudouin d'Aumeries
Assistance à la programmation : Marc-Olivier Méhu
Soutien technique & logistique : Manuel Goepfert

Contact : metmap@orbifly.com




SOURCES & CREDITS :

   NOAA